createdAt,value
2023-08-17T00:00:21.618Z,5.93
2023-08-17T00:02:48.782Z,5.82
2023-08-17T00:05:16.293Z,5.72
2023-08-17T00:07:43.407Z,6.20
2023-08-17T00:10:10.859Z,5.45
2023-08-17T00:12:37.987Z,6.00
2023-08-17T00:15:05.617Z,5.95
2023-08-17T00:17:33.078Z,5.85
2023-08-17T00:20:00.287Z,5.65
2023-08-17T00:22:27.509Z,6.30
2023-08-17T00:24:54.633Z,5.55
2023-08-17T00:27:21.710Z,5.78
2023-08-17T00:29:48.821Z,5.53
2023-08-17T00:32:15.998Z,5.65
2023-08-17T00:34:43.192Z,5.93
2023-08-17T00:37:10.319Z,6.20
2023-08-17T00:39:37.623Z,5.47
2023-08-17T00:42:04.956Z,6.25
2023-08-17T00:44:32.079Z,6.35
2023-08-17T00:46:59.560Z,6.10
2023-08-17T00:49:26.716Z,6.13
2023-08-17T00:51:53.895Z,5.47
2023-08-17T00:54:27.068Z,5.72
2023-08-17T00:56:55.923Z,5.43
2023-08-17T00:59:24.438Z,5.72
2023-08-17T01:01:51.728Z,6.28
2023-08-17T01:04:18.904Z,5.72
2023-08-17T01:06:47.161Z,6.18
2023-08-17T01:09:14.647Z,5.90
2023-08-17T01:12:02.412Z,6.50
2023-08-17T01:14:40.592Z,6.03
2023-08-17T01:17:07.672Z,5.30
2023-08-17T01:19:34.919Z,5.88
2023-08-17T01:22:07.256Z,6.10
2023-08-17T01:24:34.609Z,5.68
2023-08-17T01:27:01.970Z,5.93
2023-08-17T01:29:29.553Z,5.95
2023-08-17T01:32:22.801Z,5.60
2023-08-17T01:34:59.965Z,5.72
2023-08-17T01:37:30.751Z,6.47
2023-08-17T01:40:00.366Z,5.50
2023-08-17T01:42:28.361Z,5.82
2023-08-17T01:44:56.037Z,6.13
2023-08-17T01:47:24.067Z,6.13
2023-08-17T01:49:51.645Z,5.65
2023-08-17T01:52:18.935Z,5.80
2023-08-17T01:54:46.062Z,6.47
2023-08-17T01:57:13.564Z,6.10
2023-08-17T01:59:40.653Z,5.95
2023-08-17T02:02:09.761Z,6.65
2023-08-17T02:04:37.137Z,6.20
2023-08-17T02:07:04.764Z,6.18
2023-08-17T02:09:31.883Z,6.15
2023-08-17T02:11:58.943Z,5.88
2023-08-17T02:14:26.212Z,5.50
2023-08-17T02:16:53.934Z,5.75
2023-08-17T02:19:26.490Z,5.82
2023-08-17T02:21:53.675Z,5.22
2023-08-17T02:24:20.902Z,5.47
2023-08-17T02:26:48.008Z,5.80
2023-08-17T02:29:15.224Z,6.03
2023-08-17T02:31:42.445Z,6.00
2023-08-17T02:34:10.798Z,6.57
2023-08-17T02:36:38.176Z,6.28
2023-08-17T02:39:05.746Z,6.13
2023-08-17T02:41:33.502Z,6.43
2023-08-17T02:44:07.843Z,6.05
2023-08-17T02:49:02.446Z,6.15
2023-08-17T02:51:29.722Z,6.22
2023-08-17T02:53:56.848Z,5.93
2023-08-17T02:56:23.995Z,6.70
2023-08-17T02:58:51.116Z,6.53
2023-08-17T03:01:18.283Z,6.18
2023-08-17T03:03:45.456Z,6.28
2023-08-17T03:06:13.204Z,6.00
2023-08-17T03:08:41.470Z,5.88
2023-08-17T03:11:10.819Z,6.18
2023-08-17T03:13:38.065Z,6.25
2023-08-17T03:16:05.535Z,7.72
2023-08-17T03:18:32.717Z,7.50
2023-08-17T03:21:00.691Z,6.78
2023-08-17T03:23:27.849Z,6.72
2023-08-17T03:25:55.564Z,6.85
2023-08-17T03:28:23.959Z,6.55
2023-08-17T03:30:51.174Z,6.00
2023-08-17T03:33:18.322Z,6.78
2023-08-17T03:35:45.699Z,7.50
2023-08-17T03:38:12.893Z,6.53
2023-08-17T03:40:40.177Z,6.57
2023-08-17T03:43:07.287Z,6.43
2023-08-17T03:45:34.474Z,6.63
2023-08-17T03:48:02.008Z,7.25
2023-08-17T03:50:29.402Z,6.70
2023-08-17T03:52:56.567Z,7.28
2023-08-17T03:55:23.817Z,7.18
2023-08-17T03:57:50.978Z,18.02
2023-08-17T04:00:18.394Z,11.15
2023-08-17T04:02:45.666Z,11.38
2023-08-17T04:05:17.609Z,6.80
2023-08-17T04:07:44.708Z,6.15
2023-08-17T04:10:12.326Z,10.13
2023-08-17T04:12:39.739Z,9.32
2023-08-17T04:15:07.463Z,9.80
2023-08-17T04:17:34.705Z,6.72
2023-08-17T04:20:02.698Z,5.97
2023-08-17T04:22:30.565Z,6.45
2023-08-17T04:24:57.716Z,7.90
2023-08-17T04:27:26.316Z,5.25
2023-08-17T04:29:53.701Z,5.30
2023-08-17T04:32:21.787Z,6.13
2023-08-17T04:34:49.463Z,5.40
2023-08-17T04:37:17.069Z,5.40
2023-08-17T04:39:44.762Z,5.68
2023-08-17T04:42:18.162Z,4.93
2023-08-17T04:44:45.448Z,5.25
2023-08-17T04:47:12.807Z,5.25
2023-08-17T04:49:39.997Z,5.30
2023-08-17T04:52:07.253Z,5.18
2023-08-17T04:54:35.262Z,4.82
2023-08-17T04:57:02.486Z,5.32
2023-08-17T04:59:30.557Z,5.03
2023-08-17T05:01:57.818Z,5.25
2023-08-17T05:04:25.461Z,5.13
2023-08-17T05:06:54.318Z,4.85
2023-08-17T05:09:21.784Z,5.38
2023-08-17T05:11:48.932Z,4.85
2023-08-17T05:14:16.091Z,4.60
2023-08-17T05:16:43.283Z,4.30
2023-08-17T05:19:10.814Z,4.18
2023-08-17T05:21:38.083Z,4.70
2023-08-17T05:24:06.031Z,4.50
2023-08-17T05:26:33.224Z,4.45
2023-08-17T05:29:00.681Z,3.50
2023-08-17T05:31:27.929Z,4.07
2023-08-17T05:33:56.053Z,3.22
2023-08-17T05:36:25.519Z,4.10
2023-08-17T05:38:52.804Z,3.55
2023-08-17T05:41:19.964Z,3.50
2023-08-17T05:43:47.236Z,2.65
2023-08-17T05:46:14.470Z,3.22
2023-08-17T05:48:42.562Z,5.18
2023-08-17T05:51:09.746Z,2.63
2023-08-17T05:53:36.927Z,2.83
2023-08-17T05:56:04.265Z,2.92
2023-08-17T05:58:31.741Z,2.92
2023-08-17T06:01:09.313Z,3.03
2023-08-17T06:03:37.258Z,3.03
2023-08-17T06:06:05.384Z,3.17
2023-08-17T06:08:32.718Z,3.72
2023-08-17T06:11:00.027Z,2.72
2023-08-17T06:13:27.420Z,3.10
2023-08-17T06:15:55.972Z,3.10
2023-08-17T06:18:25.009Z,2.75
2023-08-17T06:20:54.915Z,3.88
2023-08-17T06:23:22.309Z,3.35
2023-08-17T06:25:49.399Z,3.13
2023-08-17T06:28:16.742Z,3.28
2023-08-17T06:30:43.924Z,3.13
2023-08-17T06:33:11.171Z,2.75
2023-08-17T06:35:38.346Z,3.03
2023-08-17T06:38:05.540Z,2.80
2023-08-17T06:40:32.653Z,2.58
2023-08-17T06:42:59.834Z,2.30
2023-08-17T06:45:26.990Z,3.40
2023-08-17T06:47:54.131Z,3.70
2023-08-17T06:50:21.486Z,2.35
2023-08-17T06:52:48.603Z,2.63
2023-08-17T06:55:17.004Z,2.50
2023-08-17T06:57:44.639Z,2.80
2023-08-17T07:00:13.183Z,2.50
2023-08-17T07:02:51.930Z,2.75
2023-08-17T07:05:20.765Z,2.35
2023-08-17T07:07:47.948Z,2.60
2023-08-17T07:10:15.188Z,2.83
2023-08-17T07:12:42.399Z,2.72
2023-08-17T07:15:09.944Z,2.30
2023-08-17T07:17:38.294Z,2.25
2023-08-17T07:20:16.430Z,2.17
2023-08-17T07:22:45.130Z,2.20
2023-08-17T07:25:12.352Z,2.30
2023-08-17T07:27:39.460Z,2.63
2023-08-17T07:30:07.262Z,2.25
2023-08-17T07:32:35.295Z,2.35
2023-08-17T07:35:02.552Z,2.13
2023-08-17T07:37:35.142Z,2.35
2023-08-17T07:40:05.050Z,1.90
2023-08-17T07:42:34.324Z,2.22
2023-08-17T07:45:05.837Z,2.25
2023-08-17T07:47:34.936Z,3.03
2023-08-17T07:50:02.297Z,2.17
2023-08-17T07:52:31.246Z,2.38
2023-08-17T07:54:58.412Z,2.35
2023-08-17T07:57:25.876Z,4.68
2023-08-17T07:59:54.943Z,3.17
2023-08-17T08:04:49.054Z,2.45
2023-08-17T08:07:16.292Z,2.78
2023-08-17T08:09:43.595Z,2.55
2023-08-17T08:12:10.745Z,2.30
2023-08-17T08:14:37.980Z,2.70
2023-08-17T08:17:05.173Z,2.30
2023-08-17T08:19:33.930Z,2.92
2023-08-17T08:22:01.257Z,2.80
2023-08-17T08:27:02.659Z,3.25
2023-08-17T08:29:29.819Z,2.53
2023-08-17T08:31:58.548Z,2.42
2023-08-17T08:34:25.739Z,2.33
2023-08-17T08:36:52.905Z,2.50
2023-08-17T08:39:20.105Z,2.33
2023-08-17T08:41:47.291Z,2.45
2023-08-17T08:44:14.650Z,2.63
2023-08-17T08:46:45.373Z,2.60
2023-08-17T08:49:13.663Z,3.00
2023-08-17T08:51:45.198Z,2.83
2023-08-17T08:54:15.525Z,2.35
2023-08-17T08:56:47.837Z,2.30
2023-08-17T08:59:15.855Z,2.30
2023-08-17T09:01:43.409Z,2.60
2023-08-17T09:04:10.923Z,2.60
2023-08-17T09:06:39.565Z,2.80
2023-08-17T09:09:08.989Z,2.80
2023-08-17T09:11:37.345Z,2.70
2023-08-17T09:14:07.750Z,3.00
2023-08-17T09:16:35.032Z,3.00
2023-08-17T09:19:02.737Z,2.97
2023-08-17T09:21:34.196Z,2.58
2023-08-17T09:24:01.360Z,2.85
2023-08-17T09:26:34.063Z,2.80
2023-08-17T09:29:03.343Z,6.47
2023-08-17T09:31:33.133Z,2.25
2023-08-17T09:34:07.320Z,2.50
2023-08-17T09:36:37.348Z,2.30
2023-08-17T09:39:04.713Z,2.30
2023-08-17T09:41:31.905Z,2.40
2023-08-17T09:43:59.101Z,2.28
2023-08-17T09:46:27.603Z,2.60
2023-08-17T09:48:55.178Z,2.40
2023-08-17T09:51:22.318Z,2.63
2023-08-17T09:54:00.030Z,4.07
2023-08-17T09:56:29.041Z,4.55
2023-08-17T10:01:24.862Z,2.28
2023-08-17T10:03:56.198Z,2.83
2023-08-17T10:06:27.936Z,2.33
2023-08-17T10:08:59.613Z,2.40
2023-08-17T10:11:31.925Z,2.30
2023-08-17T10:14:11.855Z,2.42
2023-08-17T10:16:47.167Z,2.60
2023-08-17T10:19:23.412Z,2.60
2023-08-17T10:21:57.825Z,2.47
2023-08-17T10:24:25.101Z,2.22
2023-08-17T10:26:54.799Z,2.30
2023-08-17T10:29:24.702Z,2.10
2023-08-17T10:31:52.652Z,2.50
2023-08-17T10:34:20.209Z,2.42
2023-08-17T10:36:48.262Z,2.40
2023-08-17T10:39:28.285Z,6.57
2023-08-17T10:41:58.065Z,2.65
2023-08-17T10:44:47.717Z,2.65
2023-08-17T10:47:26.167Z,2.50
2023-08-17T10:49:57.925Z,2.58
2023-08-17T10:52:30.837Z,2.00
2023-08-17T10:55:00.360Z,2.10
2023-08-17T10:57:31.542Z,1.90
2023-08-17T11:00:28.577Z,1.85
2023-08-17T11:03:02.155Z,2.25
2023-08-17T11:05:54.502Z,2.05
2023-08-17T11:08:42.744Z,3.25
2023-08-17T11:11:15.049Z,2.30
2023-08-17T11:13:44.653Z,2.35
2023-08-17T11:16:16.888Z,1.92
2023-08-17T11:18:46.288Z,2.00
2023-08-17T11:21:19.420Z,2.30
2023-08-17T11:23:47.644Z,1.88
2023-08-17T11:26:19.817Z,2.53
2023-08-17T11:28:48.408Z,1.90
2023-08-17T11:31:17.161Z,2.40
2023-08-17T11:33:46.104Z,1.90
2023-08-17T11:36:13.973Z,2.30
2023-08-17T11:38:43.069Z,2.25
2023-08-17T11:41:18.558Z,2.05
2023-08-17T11:43:47.153Z,2.20
2023-08-17T11:46:14.877Z,2.17
2023-08-17T11:48:42.201Z,2.65
2023-08-17T11:51:09.722Z,2.30
2023-08-17T11:53:40.233Z,2.50
2023-08-17T11:56:09.952Z,4.78
2023-08-17T11:58:45.173Z,2.28
2023-08-17T12:01:14.198Z,2.35
2023-08-17T12:03:42.816Z,6.22
2023-08-17T12:06:11.190Z,5.22
2023-08-17T12:08:38.400Z,10.85
2023-08-17T12:11:05.976Z,3.33
2023-08-17T12:13:36.534Z,15.18
2023-08-17T12:16:04.847Z,2.10
2023-08-17T12:18:37.169Z,9.00
2023-08-17T12:21:05.230Z,10.65
2023-08-17T12:23:34.145Z,2.42
2023-08-17T12:26:01.309Z,1.98
2023-08-17T12:28:28.499Z,2.35
2023-08-17T12:31:01.628Z,2.40
2023-08-17T12:33:29.537Z,3.30
2023-08-17T12:35:57.195Z,2.28
2023-08-17T12:38:27.523Z,3.95
2023-08-17T12:40:55.068Z,2.83
2023-08-17T12:43:22.629Z,7.88
2023-08-17T12:45:49.816Z,4.20
2023-08-17T12:48:17.014Z,6.28
2023-08-17T12:50:44.758Z,2.22
2023-08-17T12:53:12.291Z,2.10
2023-08-17T12:55:39.614Z,2.70
2023-08-17T12:58:11.175Z,3.22
2023-08-17T13:00:38.392Z,2.70
2023-08-17T13:03:05.960Z,2.50
2023-08-17T13:05:34.576Z,2.22
2023-08-17T13:08:01.921Z,2.08
2023-08-17T13:10:30.274Z,2.30
2023-08-17T13:13:00.541Z,2.65
2023-08-17T13:15:28.316Z,2.00
2023-08-17T13:17:55.502Z,2.00
2023-08-17T13:20:22.950Z,2.22
2023-08-17T13:22:50.587Z,2.70
2023-08-17T13:25:18.558Z,7.88
2023-08-17T13:27:47.159Z,2.42
2023-08-17T13:30:14.479Z,2.75
2023-08-17T13:32:44.192Z,2.55
2023-08-17T13:35:12.892Z,2.20
2023-08-17T13:37:40.033Z,3.15
2023-08-17T13:40:07.901Z,2.90
2023-08-17T13:42:35.570Z,2.15
2023-08-17T13:45:02.826Z,3.38
2023-08-17T13:47:31.509Z,3.00
2023-08-17T13:49:59.516Z,2.50
2023-08-17T13:52:27.468Z,2.30
2023-08-17T13:54:54.931Z,2.47
2023-08-17T13:57:22.498Z,3.00
2023-08-17T13:59:49.620Z,2.90
2023-08-17T14:02:16.752Z,2.47
2023-08-17T14:04:43.929Z,2.72
2023-08-17T14:07:11.080Z,2.70
2023-08-17T14:09:38.270Z,3.75
2023-08-17T14:12:05.834Z,3.55
2023-08-17T14:14:34.299Z,2.65
2023-08-17T14:17:03.269Z,2.47
2023-08-17T14:19:30.597Z,2.50
2023-08-17T14:21:57.928Z,2.10
2023-08-17T14:24:25.045Z,2.88
2023-08-17T14:26:52.190Z,2.78
2023-08-17T14:29:19.337Z,3.10
2023-08-17T14:31:46.493Z,3.53
2023-08-17T14:34:14.950Z,2.35
2023-08-17T14:36:42.107Z,2.25
2023-08-17T14:39:09.204Z,3.13
2023-08-17T14:41:36.434Z,2.50
2023-08-17T14:44:03.832Z,4.20
2023-08-17T14:46:31.825Z,3.10
2023-08-17T14:48:59.287Z,3.20
2023-08-17T14:53:56.858Z,3.67
2023-08-17T14:56:26.332Z,2.90
2023-08-17T14:58:53.447Z,3.03
2023-08-17T15:01:20.761Z,3.50
2023-08-17T15:03:48.310Z,4.00
2023-08-17T15:06:28.468Z,4.13
2023-08-17T15:09:00.650Z,3.80
2023-08-17T15:11:27.790Z,3.30
2023-08-17T15:13:55.011Z,2.45
2023-08-17T15:16:26.760Z,2.80
2023-08-17T15:18:54.387Z,2.70
2023-08-17T15:21:23.186Z,3.13
2023-08-17T15:23:50.472Z,2.60
2023-08-17T15:26:17.666Z,3.20
2023-08-17T15:28:44.921Z,2.78
2023-08-17T15:31:14.508Z,3.08
2023-08-17T15:33:42.146Z,3.00
2023-08-17T15:36:09.525Z,3.08
2023-08-17T15:38:36.775Z,3.20
2023-08-17T15:41:04.910Z,3.00
2023-08-17T15:43:32.185Z,2.97
2023-08-17T15:45:59.475Z,3.50
2023-08-17T15:48:26.908Z,3.25
2023-08-17T15:50:54.148Z,3.17
2023-08-17T15:53:21.267Z,3.13
2023-08-17T15:55:48.415Z,3.03
2023-08-17T15:58:15.620Z,3.25
2023-08-17T16:00:42.760Z,3.83
2023-08-17T16:03:13.081Z,5.07
2023-08-17T16:05:40.972Z,7.05
2023-08-17T16:08:08.360Z,4.80
2023-08-17T16:10:36.332Z,3.97
2023-08-17T16:13:04.261Z,3.35
2023-08-17T16:15:31.440Z,3.35
2023-08-17T16:18:01.744Z,4.18
2023-08-17T16:20:31.416Z,3.88
2023-08-17T16:22:58.885Z,4.68
2023-08-17T16:27:56.851Z,9.07
2023-08-17T16:30:24.389Z,7.13
2023-08-17T16:32:52.106Z,5.78
2023-08-17T16:35:19.457Z,6.65
2023-08-17T16:37:46.572Z,6.07
2023-08-17T16:40:27.726Z,5.43
2023-08-17T16:43:01.372Z,5.63
2023-08-17T16:45:29.088Z,6.15
2023-08-17T16:47:56.231Z,6.15
2023-08-17T16:50:23.426Z,5.35
2023-08-17T16:52:51.409Z,4.88
2023-08-17T16:55:18.809Z,5.53
2023-08-17T16:57:47.536Z,6.40
2023-08-17T17:00:15.412Z,6.00
2023-08-17T17:02:42.722Z,6.65
2023-08-17T17:05:10.243Z,7.03
2023-08-17T17:07:37.455Z,6.15
2023-08-17T17:10:05.126Z,5.70
2023-08-17T17:12:32.505Z,6.18
2023-08-17T17:14:59.727Z,6.22
2023-08-17T17:17:27.197Z,5.28
2023-08-17T17:19:54.615Z,6.03
2023-08-17T17:22:22.316Z,5.85
2023-08-17T17:24:49.684Z,5.93
2023-08-17T17:27:17.625Z,6.15
2023-08-17T17:29:44.979Z,6.18
2023-08-17T17:32:12.230Z,6.05
2023-08-17T17:34:39.494Z,5.55
2023-08-17T17:37:06.885Z,5.82
2023-08-17T17:39:34.225Z,5.75
2023-08-17T17:42:01.442Z,6.20
2023-08-17T17:44:28.746Z,5.93
2023-08-17T17:46:55.958Z,6.15
2023-08-17T17:49:23.371Z,6.13
2023-08-17T17:51:50.838Z,7.07
2023-08-17T17:54:18.567Z,6.75
2023-08-17T17:56:46.195Z,7.05
2023-08-17T17:59:14.047Z,6.63
2023-08-17T18:01:41.336Z,7.07
2023-08-17T18:04:08.675Z,7.38
2023-08-17T18:06:35.967Z,7.35
2023-08-17T18:09:06.150Z,7.25
2023-08-17T18:11:33.766Z,7.78
2023-08-17T18:14:00.978Z,7.07
2023-08-17T18:16:28.594Z,7.28
2023-08-17T18:18:55.774Z,8.48
2023-08-17T18:21:23.021Z,6.82
2023-08-17T18:23:50.780Z,7.80
2023-08-17T18:26:17.952Z,7.45
2023-08-17T18:28:45.039Z,7.47
2023-08-17T18:31:12.235Z,7.93
2023-08-17T18:33:39.574Z,7.95
2023-08-17T18:36:06.873Z,7.85
2023-08-17T18:38:34.036Z,8.05
2023-08-17T18:41:10.914Z,8.43
2023-08-17T18:43:38.296Z,7.38
2023-08-17T18:46:06.559Z,7.47
2023-08-17T18:48:34.320Z,7.32
2023-08-17T18:51:01.674Z,7.70
2023-08-17T18:53:29.021Z,6.95
2023-08-17T18:55:56.205Z,7.53
2023-08-17T18:58:25.632Z,7.47
2023-08-17T19:00:53.150Z,6.85
2023-08-17T19:03:20.422Z,7.47
2023-08-17T19:05:47.796Z,8.05
2023-08-17T19:08:15.079Z,7.90
2023-08-17T19:10:42.244Z,7.53
2023-08-17T19:13:09.369Z,7.63
2023-08-17T19:15:36.665Z,7.43
2023-08-17T19:18:04.091Z,7.57
2023-08-17T19:20:31.311Z,7.55
2023-08-17T19:22:58.714Z,7.97
2023-08-17T19:25:26.208Z,7.93
2023-08-17T19:27:53.659Z,7.82
2023-08-17T19:30:20.919Z,7.80
2023-08-17T19:32:48.145Z,7.50
2023-08-17T19:35:16.271Z,7.55
2023-08-17T19:37:44.370Z,7.10
2023-08-17T19:40:12.094Z,8.27
2023-08-17T19:42:39.226Z,8.23
2023-08-17T19:45:06.769Z,8.65
2023-08-17T19:47:34.046Z,7.63
2023-08-17T19:50:01.252Z,7.50
2023-08-17T19:52:28.557Z,7.45
2023-08-17T19:54:55.697Z,8.43
2023-08-17T19:57:23.476Z,7.22
2023-08-17T19:59:50.777Z,7.13
2023-08-17T20:02:18.109Z,6.90
2023-08-17T20:04:46.217Z,7.63
2023-08-17T20:07:13.495Z,7.95
2023-08-17T20:09:40.815Z,8.20
2023-08-17T20:12:08.318Z,7.60
2023-08-17T20:14:39.840Z,7.40
2023-08-17T20:17:07.027Z,7.65
2023-08-17T20:19:34.305Z,7.20
2023-08-17T20:22:01.889Z,8.00
2023-08-17T20:24:29.158Z,8.15
2023-08-17T20:26:56.254Z,6.65
2023-08-17T20:29:23.556Z,7.32
2023-08-17T20:31:51.301Z,8.18
2023-08-17T20:34:18.488Z,7.60
2023-08-17T20:36:45.826Z,7.88
2023-08-17T20:39:13.206Z,6.82
2023-08-17T20:41:40.893Z,7.47
2023-08-17T20:44:08.073Z,6.90
2023-08-17T20:46:35.278Z,8.77
2023-08-17T20:49:03.338Z,7.85
2023-08-17T20:51:30.407Z,7.55
2023-08-17T20:53:58.720Z,8.38
2023-08-17T20:56:25.919Z,7.88
2023-08-17T20:58:53.170Z,7.85
2023-08-17T21:01:20.321Z,7.53
2023-08-17T21:03:47.604Z,7.72
2023-08-17T21:06:14.861Z,7.15
2023-08-17T21:08:43.016Z,7.80
2023-08-17T21:11:10.103Z,7.93
2023-08-17T21:13:37.615Z,8.35
2023-08-17T21:16:09.706Z,7.45
2023-08-17T21:18:37.268Z,7.47
2023-08-17T21:21:04.491Z,8.32
2023-08-17T21:23:32.018Z,8.80
2023-08-17T21:26:02.561Z,8.98
2023-08-17T21:28:29.786Z,7.90
2023-08-17T21:31:04.317Z,7.50
2023-08-17T21:33:31.813Z,8.90
2023-08-17T21:36:00.296Z,8.32
2023-08-17T21:38:28.188Z,7.93
2023-08-17T21:41:00.917Z,9.38
2023-08-17T21:43:31.510Z,8.60
2023-08-17T21:45:59.948Z,7.93
2023-08-17T21:48:28.235Z,8.65
2023-08-17T21:50:55.387Z,8.18
2023-08-17T21:53:22.538Z,8.02
2023-08-17T21:55:50.782Z,7.97
2023-08-17T21:58:19.038Z,8.48
2023-08-17T22:00:47.354Z,8.30
2023-08-17T22:03:15.890Z,9.05
2023-08-17T22:05:46.998Z,8.73
2023-08-17T22:08:15.536Z,8.38
2023-08-17T22:10:43.759Z,7.85
2023-08-17T22:13:11.896Z,8.52
2023-08-17T22:15:39.916Z,8.05
2023-08-17T22:18:07.325Z,7.72
2023-08-17T22:20:36.094Z,8.32
2023-08-17T22:23:03.680Z,7.95
2023-08-17T22:25:30.940Z,8.32
2023-08-17T22:27:58.274Z,8.18
2023-08-17T22:30:26.774Z,9.02
2023-08-17T22:32:54.615Z,8.52
2023-08-17T22:35:21.933Z,8.63
2023-08-17T22:37:49.414Z,8.32
2023-08-17T22:40:16.665Z,8.93
2023-08-17T22:42:43.953Z,9.05
2023-08-17T22:45:11.562Z,10.68
2023-08-17T22:47:38.812Z,9.32
2023-08-17T22:50:06.850Z,8.80
2023-08-17T22:52:34.074Z,9.05
2023-08-17T22:55:01.385Z,10.43
2023-08-17T22:57:30.977Z,10.77
2023-08-17T22:59:58.259Z,11.23
2023-08-17T23:02:25.416Z,9.73
2023-08-17T23:04:52.639Z,9.80
2023-08-17T23:07:19.795Z,9.15
2023-08-17T23:09:47.829Z,8.77
2023-08-17T23:12:15.163Z,10.55
2023-08-17T23:14:42.396Z,9.30
2023-08-17T23:17:09.938Z,10.10
2023-08-17T23:19:37.204Z,8.93
2023-08-17T23:22:04.554Z,8.68
2023-08-17T23:24:31.960Z,8.55
2023-08-17T23:26:59.153Z,9.63
2023-08-17T23:29:26.358Z,8.77
2023-08-17T23:31:53.551Z,8.10
2023-08-17T23:34:20.823Z,8.23
2023-08-17T23:36:47.946Z,7.22
2023-08-17T23:39:15.125Z,8.07
2023-08-17T23:41:42.457Z,7.97
2023-08-17T23:44:20.033Z,7.35
2023-08-17T23:46:49.016Z,7.88
2023-08-17T23:49:16.786Z,7.30
2023-08-17T23:51:43.931Z,7.20
2023-08-17T23:54:11.149Z,7.63
2023-08-17T23:56:38.276Z,7.15
2023-08-17T23:59:06.204Z,7.45
